0NY5 weather

State Police Troop D Heliport
Oneida, New York, United States

Public forecast

Using degrees Fahrenheit for public forecast. Weather courtesy of forecast.io.

Closest aviation weather report (METAR) to State Police Troop D Heliport

Closest report is Griffiss International Airport, 13.5 nm (25.1 km) NE. Retrieved 2019/10/24 01:53 UTC (8 minutes ago):

KRME 240153Z AUTO 00000KT 10SM CLR 04/03 A3011 RMK AO2 SLP196 T00440033

Closest aviation forecast (TAF) to State Police Troop D Heliport

Closest forecast is Griffiss International Airport, 13.5 nm (25.1 km) NE. Retrieved 2019-10-24 00:22 UTC (2 hours ago):

TAF KRME 232320Z 2400/2424 26006KT P6SM SCT100 FM240900 12003KT P6SM FEW240 WS015/24030KT FM241400 22011KT P6SM SCT100 FM242200 28007KT P6SM BKN090